Архив погоды в Алатыре

Метеограмма Алатырь
Вторник, 22 Мая
Время местн. Темп Ветер Видим Явления Облачность нижн/средн/верх Атм. давл. Влжн Точка росы ВНГО R Сост. почвы Tg s
Напр Скр Прв ур.ст ур.м изм
21:00 +17.2° Ю 2 2 20 км - ясно 756 772 -0.2 31% -0.2° более 2.5 км - - - -
18:00 +22.6° Ю 1 2 50 км - переменная облачность 756 772 -0.9 23% +0.2° более 2.5 км - - - -
15:00 +23.4° Ю 2 5 50 км - переменная облачность 757 773 -1 22% +0.6° более 2.5 км - - - -
12:00 +21.4° В,Ю-В 2 4 50 км - переменная облачность 758 774 -0.7 25% +0.6° более 2.5 км - - - -
09:00 +17.3° Ю,Ю-В 2 4 более 50 км - ясно 758 774 +0.8 36% +2.1° более 2.5 км - - - -
06:00 +10.7° В 2 3 50 км - ясно 758 774 +1 53% +1.5° более 2.5 км - Сухая (без трещин) - -
03:00 +7.6° В 2 3 20 км - ясно 757 773 +0.7 61% +0.6° более 2.5 км - - - -
00:00 +9.2° С-В 1 2 20 км - ясно 756 772 +0.8 64% +2.7° более 2.5 км - - - -
Понедельник, 21 Мая
Время местн. Темп Ветер Видим Явления Облачность нижн/средн/верх Атм. давл. Влжн Точка росы ВНГО R Сост. почвы Tg s
Напр Скр Прв ур.ст ур.м изм
21:00 +13.7° С,С-В 2 3 20 км - ясно 755 771 +1 46% +2.3° более 2.5 км - - - -
18:00 +17.7° В,С-В 3 5 50 км - переменная облачность 754 770 +0.2 32% +0.6° более 2.5 км - - - -
15:00 +18° С-В 4 7 50 км - переменная облачность 754 770 +0.5 30% +0.4° более 2.5 км - - - -
12:00 +15.7° С-В 5 9 более 50 км - переменная облачность 754 770 -0.2 40% +2.3° более 2.5 км - - - -
09:00 +10.1° С-В 4 7 более 50 км - преимущественно облачно 754 770 +1 65% +3.8° 1 км - - - -
06:00 +7.6° С,С-В 3 5 50 км - облачно 753 769 +1.8 75% +3.4° 1 км - Сухая (без трещин) - -
03:00 +8.6° С 4 5 20 км - облачно 751 767 +0.7 77% +4.8° 1 км - - - -
00:00 +10.4° С,С-В 3 6 20 км - преимущественно облачно 750 767 +1.1 78% +6.8° 1 км - - - -
Воскресенье, 20 Мая
Время местн. Темп Ветер Видим Явления Облачность нижн/средн/верх Атм. давл. Влжн Точка росы ВНГО R Сост. почвы Tg s
Напр Скр Прв ур.ст ур.м изм
21:00 +12.2° С 5 8 20 км - облачно 749 765 +1.2 78% +8.4° 1 км - - - -
18:00 +13.6° С 4 6 50 км - облачно 748 764 +1.1 74% +9° 1 км - - - -
15:00 +15.3° С 4 5 50 км небо без изменений {ливневые осадки} облачно 747 763 +1.5 70% +9.9° 1 км - - - -
12:00 +14.8° С-З 4 8 50 км небо без изменений {ливневые осадки} облачно 745 761 +2 74% +10.3° 1 км - - - -
09:00 +15.1° З 7 10 50 км ливневый дождь облачно 743 759 +1.7 79% +11.4° 1 км - - - -
06:00 +14° Ю-З 5 8 50 км - облачно 742 758 +0.9 85% +11.5° 1 км - Влажная (без луж) - -
03:00 +12.7° Ю-З 4 7 20 км - облачно с прояснениями 741 757 +0.4 86% +10.4° 1 км - - - -
00:00 +13.5° Ю-З 3 5 20 км - переменная облачность 740 756 +0.2 84% +10.9° 1 км - - - -
Суббота, 19 Мая
Время местн. Темп Ветер Видим Явления Облачность нижн/средн/верх Атм. давл. Влжн Точка росы ВНГО R Сост. почвы Tg s
Напр Скр Прв ур.ст ур.м изм
21:00 +15° Ю,Ю-З 4 5 20 км небо без изменений {гроза, ливневые осадки} облачно с прояснениями 740 756 +0.4 77% +11.1° 1 км - - - -
18:00 +14.6° Ю-З 5 7 20 км слабая или умеренная гроза с осадками облачно 740 756 -0.2 78% +10.9° 1 км - - - -